Time;durP1;ratioP1;P1;durP2;ratioP2;P2;SDS_P1;SDS_P2;PMS_P1;PMS_P2;Temp;Humidity;BMP_temperature;BMP_pressure;BME280_temperature;BME280_humidity;BME280_pressure;Samples;Min_cycle;Max_cycle;Signal;HPM_P1;HPM_P2
2022/09/09 00:19:43;;;;;;;;;;;22.10;93.20;;;;;;5204780;22;19924;-94
2022/09/09 00:31:40;;;;;;;;;;;21.50;95.00;;;;;;5147128;22;19995;-94
2022/09/09 00:34:32;;;;;;;;;;;21.70;94.50;;;;;;5115650;28;19924;-94
2022/09/09 00:37:05;;;;;;;;;;;21.90;93.90;;;;;;5101767;28;19916;-94
2022/09/09 00:43:13;;;;;;;;;;;22.10;93.50;;;;;;5122368;28;19907;-96
2022/09/09 00:45:42;;;;;;;;;;;22.20;93.20;;;;;;5103668;28;19979;-95
2022/09/09 00:48:11;;;;;;;;;;;22.30;93.10;;;;;;5104534;28;19896;-96
2022/09/09 00:50:40;;;;;;;;;;;22.30;93.00;;;;;;5104683;28;19896;-96
2022/09/09 00:53:15;;;;;;;;;;;22.30;92.90;;;;;;5104542;28;19904;-95
2022/09/09 00:58:54;;;;;;;;;;;22.40;92.80;;;;;;5121831;28;19935;-95
2022/09/09 01:01:20;;;;;;;;;;;22.40;92.80;;;;;;5104079;28;19896;-93
2022/09/09 01:03:49;;;;;;;;;;;22.40;92.80;;;;;;5104043;28;19922;-95
2022/09/09 01:06:34;;;;;;;;;;;22.50;92.80;;;;;;5103687;28;19995;-95
2022/09/09 01:09:21;;;;;;;;;;;22.50;92.70;;;;;;5120161;28;19958;-94
2022/09/09 01:12:05;;;;;;;;;;;22.50;92.70;;;;;;5104399;28;19896;-94
2022/09/09 01:14:48;;;;;;;;;;;22.50;92.60;;;;;;5104317;28;19896;-93
2022/09/09 01:17:23;;;;;;;;;;;22.50;92.60;;;;;;5104311;28;19900;-94
2022/09/09 01:19:51;;;;;;;;;;;22.50;92.60;;;;;;5104187;28;19915;-93
2022/09/09 01:22:36;;;;;;;;;;;22.50;92.60;;;;;;5104170;28;19900;-94
2022/09/09 01:25:13;;;;;;;;;;;22.50;92.60;;;;;;5104037;28;19942;-95
2022/09/09 01:27:41;;;;;;;;;;;22.50;92.60;;;;;;5103759;28;19918;-94
2022/09/09 01:30:09;;;;;;;;;;;22.40;93.30;;;;;;5103574;28;19963;-94
2022/09/09 01:32:42;;;;;;;;;;;22.20;93.60;;;;;;5103725;28;19904;-94
2022/09/09 01:35:14;;;;;;;;;;;22.20;93.40;;;;;;5103935;28;19905;-94
2022/09/09 01:37:59;;;;;;;;;;;22.20;93.30;;;;;;5103866;28;19900;-94
2022/09/09 01:40:27;;;;;;;;;;;22.30;93.10;;;;;;5103516;28;19908;-93
2022/09/09 01:42:53;;;;;;;;;;;22.30;93.40;;;;;;5102781;28;19896;-94
2022/09/09 01:45:19;;;;;;;;;;;22.30;93.20;;;;;;5103290;28;19896;-94
2022/09/09 01:47:45;;;;;;;;;;;22.30;93.20;;;;;;5103147;28;19918;-94
2022/09/09 01:50:23;;;;;;;;;;;22.30;93.10;;;;;;5103023;28;19907;-96
2022/09/09 01:52:50;;;;;;;;;;;22.30;93.00;;;;;;5101276;28;19915;-94
2022/09/09 01:55:17;;;;;;;;;;;22.40;93.30;;;;;;5097416;28;19923;-93
2022/09/09 01:57:52;;;;;;;;;;;22.20;94.30;;;;;;5096661;28;19919;-94
2022/09/09 02:00:24;;;;;;;;;;;22.00;94.40;;;;;;5097378;28;19924;-94
2022/09/09 02:03:13;;;;;;;;;;;22.00;94.10;;;;;;5093979;28;19935;-94
2022/09/09 02:05:48;;;;;;;;;;;22.00;94.40;;;;;;5096069;28;19912;-94
2022/09/09 02:08:21;;;;;;;;;;;21.80;95.30;;;;;;5096885;28;19912;-94
2022/09/09 02:10:50;;;;;;;;;;;21.70;95.20;;;;;;5095933;28;19908;-94
2022/09/09 02:13:17;;;;;;;;;;;21.70;95.90;;;;;;5096838;28;19908;-94
2022/09/09 02:15:55;;;;;;;;;;;21.30;96.50;;;;;;5099238;28;19912;-93
2022/09/09 02:18:25;;;;;;;;;;;21.20;97.40;;;;;;5096944;28;19916;-93
2022/09/09 02:20:52;;;;;;;;;;;21.10;97.60;;;;;;5098222;28;19912;-94
2022/09/09 02:23:17;;;;;;;;;;;20.70;98.70;;;;;;5099131;28;19936;-94
2022/09/09 02:25:47;;;;;;;;;;;20.70;99.10;;;;;;5099324;28;19927;-95
2022/09/09 02:28:13;;;;;;;;;;;20.50;99.70;;;;;;5100515;28;19935;-95
2022/09/09 02:30:39;;;;;;;;;;;20.70;99.00;;;;;;5100863;28;19927;-95
2022/09/09 02:33:10;;;;;;;;;;;20.90;98.40;;;;;;5100821;28;19916;-95
2022/09/09 02:35:56;;;;;;;;;;;21.20;97.70;;;;;;5100776;28;19980;-94
2022/09/09 02:38:25;;;;;;;;;;;21.30;97.10;;;;;;5098533;28;19907;-94
2022/09/09 02:40:51;;;;;;;;;;;21.50;96.90;;;;;;5100660;28;19897;-95
2022/09/09 02:43:18;;;;;;;;;;;21.50;96.40;;;;;;5101909;28;19912;-95
2022/09/09 02:46:05;;;;;;;;;;;21.60;96.00;;;;;;5101405;28;19909;-94
2022/09/09 02:48:46;;;;;;;;;;;21.70;95.70;;;;;;5101333;28;19916;-95
2022/09/09 02:51:12;;;;;;;;;;;21.80;95.40;;;;;;5098080;28;19937;-93
2022/09/09 02:53:49;;;;;;;;;;;21.90;95.20;;;;;;5095111;28;19936;-93
2022/09/09 02:56:16;;;;;;;;;;;21.90;95.00;;;;;;5092352;28;19930;-93
2022/09/09 02:58:42;;;;;;;;;;;22.00;94.90;;;;;;5090670;28;20015;-93
2022/09/09 03:01:08;;;;;;;;;;;22.00;94.80;;;;;;5093252;28;20178;-94
2022/09/09 03:03:46;;;;;;;;;;;22.00;94.70;;;;;;5094482;28;19908;-94
2022/09/09 03:06:12;;;;;;;;;;;22.00;94.80;;;;;;5093195;28;19976;-93
2022/09/09 03:08:37;;;;;;;;;;;22.00;94.80;;;;;;5088898;28;19993;-93
2022/09/09 03:11:26;;;;;;;;;;;22.00;94.70;;;;;;5084341;28;19989;-93
2022/09/09 03:13:53;;;;;;;;;;;21.70;95.30;;;;;;5088200;28;19908;-93
2022/09/09 03:16:18;;;;;;;;;;;21.60;96.20;;;;;;5089441;28;19913;-94
2022/09/09 03:18:45;;;;;;;;;;;21.40;96.60;;;;;;5091342;28;19973;-93
2022/09/09 03:21:11;;;;;;;;;;;21.30;96.50;;;;;;5088928;28;19980;-94
2022/09/09 03:23:38;;;;;;;;;;;21.20;96.90;;;;;;5092349;28;19912;-93
2022/09/09 03:26:04;;;;;;;;;;;21.30;96.90;;;;;;5091319;28;19908;-93
2022/09/09 03:28:32;;;;;;;;;;;21.20;97.00;;;;;;5089364;28;19909;-94
2022/09/09 03:31:04;;;;;;;;;;;21.30;97.10;;;;;;5096911;28;19950;-95
2022/09/09 03:33:31;;;;;;;;;;;21.20;97.10;;;;;;5099506;28;19924;-94
2022/09/09 03:35:57;;;;;;;;;;;21.10;97.20;;;;;;5100494;28;19918;-94
2022/09/09 03:38:23;;;;;;;;;;;21.10;97.40;;;;;;5100540;28;19912;-95
2022/09/09 03:41:12;;;;;;;;;;;21.10;97.50;;;;;;5099924;28;19913;-94
2022/09/09 03:43:38;;;;;;;;;;;21.00;97.50;;;;;;5101275;28;19912;-95
2022/09/09 03:46:03;;;;;;;;;;;21.10;97.20;;;;;;5100585;28;19923;-95
2022/09/09 03:48:29;;;;;;;;;;;21.20;96.80;;;;;;5100418;28;19944;-94
2022/09/09 03:53:39;;;;;;;;;;;21.40;96.20;;;;;;5117719;28;19954;-94
2022/09/09 03:56:06;;;;;;;;;;;21.40;96.30;;;;;;5098244;28;19916;-94
2022/09/09 03:58:32;;;;;;;;;;;21.30;96.40;;;;;;5099636;28;19920;-94
2022/09/09 04:01:20;;;;;;;;;;;21.20;96.80;;;;;;5093930;28;19908;-93
2022/09/09 04:03:46;;;;;;;;;;;21.20;97.20;;;;;;5084473;28;19928;-94
2022/09/09 04:06:14;;;;;;;;;;;20.80;98.10;;;;;;5098211;28;19942;-93
2022/09/09 04:08:40;;;;;;;;;;;20.50;99.20;;;;;;5097044;28;19923;-94
2022/09/09 04:11:06;;;;;;;;;;;20.40;99.30;;;;;;5098772;28;19940;-93
2022/09/09 04:13:34;;;;;;;;;;;20.20;99.90;;;;;;5097998;28;19929;-94
2022/09/09 04:16:01;;;;;;;;;;;19.80;99.90;;;;;;5098735;28;19912;-94
2022/09/09 04:18:28;;;;;;;;;;;19.70;99.90;;;;;;5096331;28;19939;-94
2022/09/09 04:20:54;;;;;;;;;;;20.00;99.90;;;;;;5102622;28;19923;-94
2022/09/09 04:26:05;;;;;;;;;;;20.30;99.90;;;;;;5121219;28;19903;-94
2022/09/09 04:28:32;;;;;;;;;;;20.10;99.90;;;;;;5100645;28;19928;-93
2022/09/09 04:31:04;;;;;;;;;;;20.10;99.90;;;;;;5104433;28;19956;-94
2022/09/09 04:33:31;;;;;;;;;;;20.00;99.90;;;;;;5102941;28;19920;-94
2022/09/09 04:35:57;;;;;;;;;;;19.70;99.90;;;;;;5100923;28;20286;-93
2022/09/09 04:38:22;;;;;;;;;;;19.60;99.90;;;;;;5089416;28;19923;-93
2022/09/09 04:40:51;;;;;;;;;;;19.90;99.90;;;;;;5086608;28;19908;-93
2022/09/09 04:43:18;;;;;;;;;;;20.10;99.90;;;;;;5081724;28;19919;-94
2022/09/09 04:45:46;;;;;;;;;;;20.00;99.90;;;;;;5081617;28;19909;-93
2022/09/09 04:48:12;;;;;;;;;;;20.00;99.90;;;;;;5082887;28;19977;-93
2022/09/09 04:50:38;;;;;;;;;;;19.60;99.90;;;;;;5083493;28;20140;-93
2022/09/09 04:53:04;;;;;;;;;;;19.60;99.90;;;;;;5081817;28;19948;-93
2022/09/09 04:55:31;;;;;;;;;;;19.60;99.90;;;;;;5081614;28;19938;-92
2022/09/09 04:57:57;;;;;;;;;;;19.70;99.90;;;;;;5081542;28;19914;-94
2022/09/09 05:00:33;;;;;;;;;;;19.80;99.90;;;;;;5084612;28;19923;-94
2022/09/09 05:03:01;;;;;;;;;;;19.80;99.90;;;;;;5083793;28;19908;-94
2022/09/09 05:05:28;;;;;;;;;;;19.70;99.90;;;;;;5081302;28;19908;-94
2022/09/09 05:07:53;;;;;;;;;;;19.80;99.90;;;;;;5086384;28;19979;-95
2022/09/09 05:10:29;;;;;;;;;;;19.60;99.90;;;;;;5094036;28;19912;-94
2022/09/09 05:12:54;;;;;;;;;;;19.70;99.90;;;;;;5091682;28;19913;-92
2022/09/09 05:15:20;;;;;;;;;;;19.40;99.90;;;;;;5094644;28;19914;-93
2022/09/09 05:17:46;;;;;;;;;;;19.20;99.90;;;;;;5092815;28;19896;-94
2022/09/09 05:20:14;;;;;;;;;;;19.10;99.90;;;;;;5093833;28;19916;-94
2022/09/09 05:22:40;;;;;;;;;;;19.30;99.90;;;;;;5096591;28;20290;-94
2022/09/09 05:25:06;;;;;;;;;;;19.40;99.90;;;;;;5095195;28;19908;-94
2022/09/09 05:27:33;;;;;;;;;;;19.30;99.90;;;;;;5094111;28;19970;-94
2022/09/09 05:29:59;;;;;;;;;;;19.60;99.90;;;;;;5087230;28;19955;-93
2022/09/09 05:32:25;;;;;;;;;;;19.80;99.90;;;;;;5089876;28;19916;-94
2022/09/09 05:34:52;;;;;;;;;;;19.60;99.90;;;;;;5091832;28;20254;-94
2022/09/09 05:37:18;;;;;;;;;;;19.80;99.90;;;;;;5090630;28;19903;-94
2022/09/09 05:39:44;;;;;;;;;;;20.00;99.90;;;;;;5089398;28;19948;-95
2022/09/09 05:42:09;;;;;;;;;;;20.00;99.90;;;;;;5087055;28;19919;-94
2022/09/09 05:44:35;;;;;;;;;;;20.20;99.90;;;;;;5087168;28;20147;-94
2022/09/09 05:47:01;;;;;;;;;;;20.30;99.90;;;;;;5087793;28;19919;-94
2022/09/09 05:49:29;;;;;;;;;;;20.10;99.90;;;;;;5092260;28;19953;-94
2022/09/09 05:51:54;;;;;;;;;;;19.90;99.90;;;;;;5092356;28;19919;-94
2022/09/09 05:54:20;;;;;;;;;;;19.70;99.90;;;;;;5093021;28;19920;-94
2022/09/09 05:56:45;;;;;;;;;;;19.60;99.90;;;;;;5090223;28;19896;-95
2022/09/09 05:59:14;;;;;;;;;;;19.70;99.90;;;;;;5093526;28;19977;-94
2022/09/09 06:01:40;;;;;;;;;;;19.90;99.90;;;;;;5093659;28;19908;-94
2022/09/09 06:04:06;;;;;;;;;;;20.00;99.90;;;;;;5092728;28;19975;-93
2022/09/09 06:06:36;;;;;;;;;;;20.00;99.90;;;;;;5091667;28;19976;-95
2022/09/09 06:09:11;;;;;;;;;;;19.80;99.90;;;;;;5094515;28;19975;-95
2022/09/09 06:11:38;;;;;;;;;;;19.70;99.90;;;;;;5092656;28;19966;-94
2022/09/09 06:14:04;;;;;;;;;;;19.70;99.90;;;;;;5094267;28;19976;-95
2022/09/09 06:16:32;;;;;;;;;;;19.50;99.90;;;;;;5097895;28;19916;-95
2022/09/09 06:21:44;;;;;;;;;;;19.50;99.90;;;;;;5119138;28;19923;-96
2022/09/09 06:24:10;;;;;;;;;;;19.40;99.90;;;;;;5101599;28;19975;-95
2022/09/09 06:26:37;;;;;;;;;;;19.30;99.90;;;;;;5100604;28;19944;-95
2022/09/09 06:29:21;;;;;;;;;;;19.00;99.90;;;;;;5100067;28;19913;-94
2022/09/09 06:31:47;;;;;;;;;;;19.10;99.90;;;;;;5099568;28;19968;-94
2022/09/09 06:34:13;;;;;;;;;;;19.20;99.90;;;;;;5098846;28;19916;-95
2022/09/09 06:36:38;;;;;;;;;;;19.00;99.90;;;;;;5098333;28;19919;-95
2022/09/09 06:42:06;;;;;;;;;;;19.20;99.90;;;;;;5115096;28;19917;-96
2022/09/09 06:44:33;;;;;;;;;;;19.30;99.90;;;;;;5098522;28;19913;-94
2022/09/09 06:46:59;;;;;;;;;;;19.10;99.90;;;;;;5098581;28;19910;-95
2022/09/09 06:49:24;;;;;;;;;;;19.50;99.90;;;;;;5097589;28;19892;-95
2022/09/09 06:51:51;;;;;;;;;;;19.80;99.90;;;;;;5087924;28;19908;-94
2022/09/09 06:54:18;;;;;;;;;;;19.90;99.90;;;;;;5083116;28;19908;-94
2022/09/09 06:56:44;;;;;;;;;;;19.90;99.90;;;;;;5081561;28;19908;-95
2022/09/09 06:59:11;;;;;;;;;;;19.90;99.90;;;;;;5085000;28;20083;-94
2022/09/09 07:01:41;;;;;;;;;;;20.10;99.90;;;;;;5080078;28;19908;-92
2022/09/09 07:04:08;;;;;;;;;;;20.30;99.90;;;;;;5083188;28;20182;-94
2022/09/09 07:06:38;;;;;;;;;;;20.50;99.90;;;;;;5099884;28;19908;-94
2022/09/09 07:09:09;;;;;;;;;;;20.30;99.90;;;;;;5079485;28;20368;-95
2022/09/09 07:11:53;;;;;;;;;;;20.60;99.90;;;;;;5079829;28;19908;-94
2022/09/09 07:14:19;;;;;;;;;;;20.70;99.90;;;;;;5081058;28;19912;-93
2022/09/09 07:16:53;;;;;;;;;;;21.00;99.90;;;;;;5085394;28;19908;-94
2022/09/09 07:19:19;;;;;;;;;;;22.20;99.00;;;;;;5085557;28;19948;-92
2022/09/09 07:21:45;;;;;;;;;;;23.90;94.90;;;;;;5085663;28;19908;-94
2022/09/09 07:24:10;;;;;;;;;;;24.80;91.90;;;;;;5100284;28;19900;-95
2022/09/09 07:26:36;;;;;;;;;;;24.50;90.70;;;;;;5108985;22;19897;-18
2022/09/09 07:29:02;;;;;;;;;;;24.00;91.90;;;;;;5093920;28;19912;-19
2022/09/09 07:31:32;;;;;;;;;;;23.50;93.10;;;;;;5092993;28;20015;-19
2022/09/09 07:34:02;;;;;;;;;;;23.30;93.80;;;;;;5093320;28;19908;-19
2022/09/09 07:36:29;;;;;;;;;;;22.90;94.80;;;;;;5093780;28;19916;-19
2022/09/09 07:38:56;;;;;;;;;;;22.90;94.90;;;;;;5094048;28;20269;-18
2022/09/09 07:41:23;;;;;;;;;;;22.90;94.90;;;;;;5095505;28;20122;-18
2022/09/09 07:43:53;;;;;;;;;;;23.10;94.60;;;;;;5096070;28;19908;-19
2022/09/09 07:46:20;;;;;;;;;;;23.10;93.90;;;;;;5095868;28;19960;-18
2022/09/09 07:48:51;;;;;;;;;;;23.50;94.10;;;;;;5077425;28;19974;-19
2022/09/09 07:51:18;;;;;;;;;;;24.30;90.70;;;;;;5095103;28;19912;-19
2022/09/09 07:53:51;;;;;;;;;;;24.20;90.70;;;;;;5078541;28;19912;-19
2022/09/09 07:56:18;;;;;;;;;;;24.40;90.80;;;;;;5098945;28;20305;-18
2022/09/09 07:58:47;;;;;;;;;;;25.50;85.30;;;;;;5098262;28;19912;-20
2022/09/09 08:01:14;;;;;;;;;;;26.50;77.10;;;;;;5098850;28;19908;-18
2022/09/09 08:03:46;;;;;;;;;;;26.10;75.00;;;;;;5082298;28;19939;-19
2022/09/09 08:06:13;;;;;;;;;;;26.50;74.20;;;;;;5081942;28;20472;-18
2022/09/09 08:08:41;;;;;;;;;;;27.40;68.80;;;;;;5099795;28;19969;-19
2022/09/09 08:11:07;;;;;;;;;;;27.00;68.90;;;;;;5098349;28;20406;-20
2022/09/09 08:13:36;;;;;;;;;;;26.30;71.70;;;;;;5099398;28;20416;-19
2022/09/09 08:16:09;;;;;;;;;;;26.00;72.00;;;;;;5081564;28;19935;-20
2022/09/09 08:18:35;;;;;;;;;;;25.50;75.80;;;;;;5098917;28;19955;-17
2022/09/09 08:21:08;;;;;;;;;;;25.20;77.80;;;;;;5097701;28;19943;-18
2022/09/09 08:23:34;;;;;;;;;;;25.10;78.50;;;;;;5097379;28;19908;-18
2022/09/09 08:26:24;;;;;;;;;;;25.30;77.70;;;;;;5096929;28;19908;-19
2022/09/09 08:28:51;;;;;;;;;;;25.20;79.20;;;;;;5080808;28;19916;-18
2022/09/09 08:31:18;;;;;;;;;;;26.00;75.10;;;;;;5098257;28;19916;-18
2022/09/09 08:33:45;;;;;;;;;;;26.50;71.10;;;;;;5098358;28;19962;-18
2022/09/09 08:36:15;;;;;;;;;;;27.50;67.00;;;;;;5079859;28;20428;-18
2022/09/09 08:38:41;;;;;;;;;;;27.30;65.10;;;;;;5098605;28;19908;-18
2022/09/09 08:41:27;;;;;;;;;;;27.30;64.50;;;;;;5080425;28;20402;-19
2022/09/09 08:44:14;;;;;;;;;;;27.50;64.40;;;;;;5097854;28;19943;-18
2022/09/09 08:46:49;;;;;;;;;;;28.50;61.20;;;;;;5096799;28;19908;-18
2022/09/09 08:49:25;;;;;;;;;;;30.00;58.00;;;;;;5098286;28;19908;-18
2022/09/09 08:51:55;;;;;;;;;;;30.00;56.60;;;;;;5097782;28;19912;-19
2022/09/09 08:54:20;;;;;;;;;;;29.60;56.80;;;;;;5097548;28;19954;-18
2022/09/09 08:56:46;;;;;;;;;;;29.90;56.50;;;;;;5097107;28;19947;-19
2022/09/09 08:59:15;;;;;;;;;;;29.60;55.80;;;;;;5079902;28;20001;-18
2022/09/09 09:02:01;;;;;;;;;;;30.30;55.70;;;;;;5097652;28;20240;-18
2022/09/09 09:04:33;;;;;;;;;;;30.90;54.60;;;;;;5079220;28;19908;-17
2022/09/09 09:07:08;;;;;;;;;;;31.40;53.80;;;;;;5097396;28;19908;-19
2022/09/09 09:09:41;;;;;;;;;;;31.30;53.40;;;;;;5097490;28;19908;-19
2022/09/09 09:12:18;;;;;;;;;;;31.40;52.90;;;;;;5097657;28;19908;-19
2022/09/09 09:14:46;;;;;;;;;;;30.20;53.30;;;;;;5097391;28;20068;-20
2022/09/09 09:17:23;;;;;;;;;;;30.00;54.10;;;;;;5095890;28;19942;-18
2022/09/09 09:19:52;;;;;;;;;;;29.80;54.10;;;;;;5096054;28;20053;-18
2022/09/09 09:22:34;;;;;;;;;;;28.60;54.90;;;;;;5095852;28;19909;-20
2022/09/09 09:24:59;;;;;;;;;;;27.60;56.50;;;;;;5095158;28;19909;-18
2022/09/09 09:27:30;;;;;;;;;;;26.90;58.00;;;;;;5095876;28;19923;-19
2022/09/09 09:29:58;;;;;;;;;;;26.50;59.30;;;;;;5078431;28;19935;-19
2022/09/09 09:32:24;;;;;;;;;;;26.30;60.00;;;;;;5076467;28;19908;-19
2022/09/09 09:34:55;;;;;;;;;;;26.20;61.30;;;;;;5078032;28;19921;-18
2022/09/09 09:37:30;;;;;;;;;;;26.10;62.40;;;;;;5095050;28;19919;-20
2022/09/09 09:39:56;;;;;;;;;;;25.90;63.10;;;;;;5077434;28;19912;-19
2022/09/09 09:42:22;;;;;;;;;;;25.90;63.90;;;;;;5095654;28;20053;-20
2022/09/09 09:44:47;;;;;;;;;;;25.80;65.10;;;;;;5094738;28;20395;-21
2022/09/09 09:47:20;;;;;;;;;;;26.00;64.50;;;;;;5095300;28;19908;-21
2022/09/09 09:50:02;;;;;;;;;;;25.70;65.40;;;;;;5095285;28;19908;-19
2022/09/09 09:52:31;;;;;;;;;;;25.40;64.90;;;;;;5096152;28;19908;-20
2022/09/09 09:54:57;;;;;;;;;;;25.00;64.40;;;;;;5096615;28;19919;-19
2022/09/09 09:57:26;;;;;;;;;;;24.60;68.90;;;;;;5095877;28;19908;-20
2022/09/09 10:00:05;;;;;;;;;;;24.50;70.90;;;;;;5093509;28;19922;-20
2022/09/09 10:02:36;;;;;;;;;;;24.40;71.90;;;;;;5087225;28;20390;-18
2022/09/09 10:05:21;;;;;;;;;;;24.60;71.60;;;;;;5085524;28;19923;-20
2022/09/09 10:07:47;;;;;;;;;;;24.80;70.10;;;;;;5064238;28;19912;-21
2022/09/09 10:10:36;;;;;;;;;;;25.00;68.90;;;;;;5094361;28;20401;-19
2022/09/09 10:13:01;;;;;;;;;;;25.10;68.90;;;;;;5080514;28;20289;-20
2022/09/09 10:15:27;;;;;;;;;;;25.20;69.20;;;;;;5094589;28;19908;-21
2022/09/09 10:18:14;;;;;;;;;;;25.10;69.50;;;;;;5077609;28;19908;-19
2022/09/09 10:21:00;;;;;;;;;;;25.10;69.40;;;;;;5078106;28;20492;-19
2022/09/09 10:23:25;;;;;;;;;;;25.00;68.90;;;;;;5094706;28;19916;-19
2022/09/09 10:25:57;;;;;;;;;;;25.00;69.70;;;;;;5094637;28;19908;-19
2022/09/09 10:28:44;;;;;;;;;;;25.00;70.20;;;;;;5094576;28;20273;-20
2022/09/09 10:31:24;;;;;;;;;;;25.00;69.60;;;;;;5075303;28;19908;-19
2022/09/09 10:33:56;;;;;;;;;;;25.10;70.30;;;;;;5075678;28;20193;-20
2022/09/09 10:36:29;;;;;;;;;;;25.10;70.50;;;;;;5075659;28;20084;-19
2022/09/09 10:38:59;;;;;;;;;;;25.00;71.00;;;;;;5076240;28;20455;-19
2022/09/09 10:41:27;;;;;;;;;;;25.00;68.70;;;;;;5092105;28;20128;-21
2022/09/09 10:43:53;;;;;;;;;;;25.00;70.10;;;;;;5088871;28;20063;-20
2022/09/09 10:46:18;;;;;;;;;;;24.90;70.40;;;;;;5073279;28;20232;-22
2022/09/09 10:48:54;;;;;;;;;;;25.00;70.10;;;;;;5094479;28;19912;-19
2022/09/09 10:51:36;;;;;;;;;;;25.10;69.70;;;;;;5094765;28;19908;-19
2022/09/09 10:54:15;;;;;;;;;;;25.10;69.60;;;;;;5095214;28;19908;-19
2022/09/09 10:56:42;;;;;;;;;;;25.10;68.50;;;;;;5095227;28;19908;-19
2022/09/09 10:59:14;;;;;;;;;;;25.10;63.80;;;;;;5094369;28;20224;-19
2022/09/09 11:01:44;;;;;;;;;;;25.10;67.10;;;;;;5095121;28;20363;-20
2022/09/09 11:04:09;;;;;;;;;;;25.00;63.30;;;;;;5077207;28;19904;-18
2022/09/09 11:06:39;;;;;;;;;;;25.10;66.80;;;;;;5094812;28;19908;-20
2022/09/09 11:09:05;;;;;;;;;;;25.10;66.40;;;;;;5095272;28;20342;-19
2022/09/09 11:11:54;;;;;;;;;;;25.10;66.60;;;;;;5094348;28;20459;-20
2022/09/09 11:14:20;;;;;;;;;;;25.10;62.60;;;;;;5075133;28;19912;-20
2022/09/09 11:16:50;;;;;;;;;;;25.10;61.80;;;;;;5057424;28;19940;-19
2022/09/09 11:19:26;;;;;;;;;;;25.10;62.60;;;;;;5058123;28;19916;-19
2022/09/09 11:21:53;;;;;;;;;;;25.00;65.30;;;;;;5072375;28;19973;-19
2022/09/09 11:24:37;;;;;;;;;;;24.90;66.70;;;;;;5055662;28;19909;-18
2022/09/09 11:27:24;;;;;;;;;;;24.90;67.20;;;;;;5073285;28;19962;-20
2022/09/09 11:30:00;;;;;;;;;;;24.90;67.50;;;;;;5059804;28;20010;-19
2022/09/09 11:32:26;;;;;;;;;;;24.90;65.80;;;;;;5060669;28;19909;-22
2022/09/09 11:34:56;;;;;;;;;;;24.90;65.50;;;;;;5060210;28;19998;-19
2022/09/09 11:37:40;;;;;;;;;;;24.90;65.40;;;;;;5060801;28;19909;-20
2022/09/09 11:40:16;;;;;;;;;;;25.00;62.30;;;;;;5076649;28;20320;-21
2022/09/09 11:42:42;;;;;;;;;;;24.90;61.60;;;;;;5076759;28;19908;-20
2022/09/09 11:45:20;;;;;;;;;;;24.70;61.40;;;;;;5077207;28;19920;-20
2022/09/09 11:47:56;;;;;;;;;;;24.70;64.50;;;;;;5061300;28;19913;-20
2022/09/09 11:50:22;;;;;;;;;;;24.70;65.40;;;;;;5078162;28;19951;-19
2022/09/09 11:52:49;;;;;;;;;;;24.70;66.50;;;;;;5078602;28;20301;-22
2022/09/09 11:55:32;;;;;;;;;;;24.60;63.00;;;;;;5061463;28;19908;-20
2022/09/09 11:58:04;;;;;;;;;;;24.60;66.20;;;;;;5079122;28;19954;-21
2022/09/09 12:00:32;;;;;;;;;;;24.50;65.50;;;;;;5059197;28;20109;-20
2022/09/09 12:02:58;;;;;;;;;;;24.40;64.20;;;;;;5077043;28;19973;-19
2022/09/09 12:05:36;;;;;;;;;;;24.40;66.20;;;;;;5077100;28;19917;-19
2022/09/09 12:08:03;;;;;;;;;;;24.30;66.70;;;;;;5058450;28;19962;-19
2022/09/09 12:10:30;;;;;;;;;;;24.30;67.50;;;;;;5076408;28;20332;-20
2022/09/09 12:13:09;;;;;;;;;;;24.30;69.10;;;;;;5078021;28;20270;-19
2022/09/09 12:15:46;;;;;;;;;;;24.30;69.90;;;;;;5075917;28;19912;-19
2022/09/09 12:18:14;;;;;;;;;;;24.30;70.40;;;;;;5075909;28;20201;-20
2022/09/09 12:20:50;;;;;;;;;;;24.30;71.50;;;;;;5076579;28;20487;-20
2022/09/09 12:23:26;;;;;;;;;;;24.20;72.00;;;;;;5077052;28;19918;-20
2022/09/09 12:25:53;;;;;;;;;;;24.20;72.70;;;;;;5059341;28;19912;-20
2022/09/09 12:28:37;;;;;;;;;;;24.20;74.70;;;;;;5075917;28;19924;-21
2022/09/09 12:31:07;;;;;;;;;;;24.20;74.70;;;;;;5076711;28;19908;-20
2022/09/09 12:33:37;;;;;;;;;;;24.20;75.90;;;;;;5059535;28;19916;-20
2022/09/09 12:36:04;;;;;;;;;;;24.20;79.50;;;;;;5059513;28;19916;-20
2022/09/09 12:38:34;;;;;;;;;;;24.30;77.60;;;;;;5076581;28;19944;-21
2022/09/09 12:41:00;;;;;;;;;;;24.20;83.80;;;;;;5059276;28;20232;-18
2022/09/09 12:43:26;;;;;;;;;;;24.20;79.20;;;;;;5077352;28;20274;-18
2022/09/09 12:46:15;;;;;;;;;;;24.30;78.50;;;;;;5077838;28;19919;-20
2022/09/09 12:48:44;;;;;;;;;;;24.30;80.70;;;;;;5058343;28;20053;-22
2022/09/09 12:51:29;;;;;;;;;;;24.30;80.20;;;;;;5058991;28;19920;-20
2022/09/09 12:53:55;;;;;;;;;;;24.30;79.40;;;;;;5076349;28;19937;-20
2022/09/09 12:56:26;;;;;;;;;;;24.30;78.80;;;;;;5075349;28;20301;-20
2022/09/09 12:58:53;;;;;;;;;;;24.20;78.50;;;;;;5076437;28;19908;-21
2022/09/09 13:01:28;;;;;;;;;;;24.20;78.50;;;;;;5076690;28;19943;-20
2022/09/09 13:03:54;;;;;;;;;;;24.20;80.70;;;;;;5076616;28;20305;-20
2022/09/09 13:06:22;;;;;;;;;;;24.20;81.50;;;;;;5075400;28;19908;-21
2022/09/09 13:08:48;;;;;;;;;;;24.20;80.90;;;;;;5075924;28;19916;-19
2022/09/09 13:11:15;;;;;;;;;;;24.30;81.60;;;;;;5057304;28;19908;-18
2022/09/09 13:13:41;;;;;;;;;;;24.40;86.70;;;;;;5075125;28;19978;-23
2022/09/09 13:16:19;;;;;;;;;;;24.40;81.50;;;;;;5074463;28;20236;-20
2022/09/09 13:18:46;;;;;;;;;;;24.40;83.70;;;;;;5075185;28;19908;-20
2022/09/09 13:21:12;;;;;;;;;;;24.40;83.10;;;;;;5075463;28;19942;-20
2022/09/09 13:23:41;;;;;;;;;;;24.40;80.70;;;;;;5075002;28;19909;-19
2022/09/09 13:26:27;;;;;;;;;;;24.40;81.00;;;;;;5075488;28;19974;-19
2022/09/09 13:28:53;;;;;;;;;;;24.40;82.00;;;;;;5074493;28;19942;-19
2022/09/09 13:31:22;;;;;;;;;;;24.40;81.90;;;;;;5075136;28;20001;-22
2022/09/09 13:33:48;;;;;;;;;;;24.40;80.10;;;;;;5075457;28;20289;-18
2022/09/09 13:36:14;;;;;;;;;;;24.30;84.30;;;;;;5075619;28;19909;-19
2022/09/09 13:38:52;;;;;;;;;;;24.30;82.90;;;;;;5057478;28;20205;-20
2022/09/09 13:41:23;;;;;;;;;;;24.20;83.50;;;;;;5076020;28;19908;-20
2022/09/09 13:43:49;;;;;;;;;;;24.30;82.60;;;;;;5057853;28;20363;-20
2022/09/09 13:46:33;;;;;;;;;;;24.20;82.60;;;;;;5076797;28;19947;-18
2022/09/09 13:49:01;;;;;;;;;;;24.10;82.80;;;;;;5076572;28;19973;-20
2022/09/09 13:51:37;;;;;;;;;;;23.90;83.50;;;;;;5075897;28;20443;-20
2022/09/09 13:54:06;;;;;;;;;;;23.90;85.20;;;;;;5077074;28;19943;-20
2022/09/09 13:56:33;;;;;;;;;;;23.90;85.70;;;;;;5077319;28;19909;-19
2022/09/09 13:58:59;;;;;;;;;;;23.80;86.40;;;;;;5076244;28;20010;-18
2022/09/09 14:01:24;;;;;;;;;;;23.80;86.80;;;;;;5076768;28;20000;-21
2022/09/09 14:03:50;;;;;;;;;;;23.80;86.40;;;;;;5077076;28;19916;-20
2022/09/09 14:06:17;;;;;;;;;;;23.70;87.40;;;;;;5075752;28;19974;-21
2022/09/09 14:08:45;;;;;;;;;;;23.80;87.20;;;;;;5076383;28;19919;-20
2022/09/09 14:11:12;;;;;;;;;;;23.80;87.40;;;;;;5075147;28;20409;-20
2022/09/09 14:13:37;;;;;;;;;;;23.90;87.40;;;;;;5076067;28;20054;-20
2022/09/09 14:16:03;;;;;;;;;;;23.70;91.40;;;;;;5075407;28;20022;-23
2022/09/09 14:18:29;;;;;;;;;;;23.70;90.90;;;;;;5074609;28;20059;-20
2022/09/09 14:20:55;;;;;;;;;;;23.70;91.40;;;;;;5075785;28;19965;-19
2022/09/09 14:23:21;;;;;;;;;;;23.30;93.70;;;;;;5074655;28;19977;-21
2022/09/09 14:25:47;;;;;;;;;;;22.80;94.00;;;;;;5075302;28;20181;-22
2022/09/09 14:28:14;;;;;;;;;;;22.90;94.10;;;;;;5058207;28;19916;-19
2022/09/09 14:30:40;;;;;;;;;;;22.80;94.80;;;;;;5058161;28;19994;-20
2022/09/09 14:33:06;;;;;;;;;;;23.00;93.90;;;;;;5076203;28;20017;-21
2022/09/09 14:35:33;;;;;;;;;;;22.90;94.10;;;;;;5075583;28;19963;-21
2022/09/09 14:37:58;;;;;;;;;;;22.90;94.10;;;;;;5075862;28;19908;-20
2022/09/09 14:40:24;;;;;;;;;;;23.10;93.40;;;;;;5075165;28;19912;-20
2022/09/09 14:42:49;;;;;;;;;;;23.00;93.50;;;;;;5057287;28;19912;-20
2022/09/09 14:45:15;;;;;;;;;;;23.20;93.30;;;;;;5074367;28;19919;-20
2022/09/09 14:47:40;;;;;;;;;;;23.30;92.90;;;;;;5074873;28;19951;-20
2022/09/09 14:50:08;;;;;;;;;;;23.30;92.60;;;;;;5073825;28;19908;-19
2022/09/09 14:52:33;;;;;;;;;;;23.40;92.80;;;;;;5075022;28;19908;-19
2022/09/09 14:54:59;;;;;;;;;;;23.40;93.60;;;;;;5074311;28;20328;-20
2022/09/09 14:57:24;;;;;;;;;;;23.20;93.90;;;;;;5074846;28;19917;-20
2022/09/09 14:59:51;;;;;;;;;;;23.30;93.50;;;;;;5074031;28;19962;-19
2022/09/09 15:02:17;;;;;;;;;;;23.40;93.50;;;;;;5056421;28;19988;-21
2022/09/09 15:04:44;;;;;;;;;;;23.60;92.60;;;;;;5073892;28;20347;-20
2022/09/09 15:07:10;;;;;;;;;;;23.60;93.10;;;;;;5073606;28;19920;-21
2022/09/09 15:09:37;;;;;;;;;;;23.60;92.80;;;;;;5055887;28;19919;-20
2022/09/09 15:12:04;;;;;;;;;;;23.50;93.40;;;;;;5073685;28;19908;-21
2022/09/09 15:14:30;;;;;;;;;;;23.50;93.10;;;;;;5073738;28;19920;-20
2022/09/09 15:16:56;;;;;;;;;;;23.50;93.20;;;;;;5073344;28;19912;-20
2022/09/09 15:19:22;;;;;;;;;;;23.40;93.40;;;;;;5073663;28;19917;-21